Terminal Aerodrome Forecast
Issued by NWS Central Illinois

Home | Current Version | Previous Version | Text Only | Print | Product List | Glossary On
Versions: 1 2 3 4 5 6 7 8 9 10 11 12 13 14 15 16 17 18 19 20 21 22 23
000
FTUS43 KILX 271100 RRA
TAFPIA
TAF
KPIA 271141Z 2712/2812 05007KT P6SM VCSH SCT100
     FM271900 07007KT P6SM VCTS SCT035CB BKN150
     FM280000 05004KT P6SM BKN250=

USA.gov is the U.S. government's official web portal to all federal, state and local government web resources and services.